ADDS METAR Data INFO
IDs: Format: Raw Decoded Include TAF

Data at: 0353 UTC 19 Jul 2018

KAXS 190335Z AUTO 10009KT 10SM CLR 32/15 A2986 RMK AO2 T03230152
KAXS 190315Z AUTO 10008KT 10SM CLR 33/15 A2986 RMK AO2 T03300148
KAXS 190255Z AUTO 10008KT 10SM CLR 34/14 A2985 RMK AO2 T03360140
KAXS 190235Z AUTO 11011KT 10SM CLR 35/14 A2985 RMK AO2 T03480140
KAXS 190215Z AUTO 11012KT 10SM CLR 35/14 A2984 RMK AO2 T03540140
KAXS 190155Z AUTO 11010KT 10SM CLR 36/13 A2984 RMK AO2 T03610134
KAXS 190135Z AUTO 12009KT 10SM CLR 37/13 A2984 RMK AO2 T03740129
KAXS 190115Z AUTO 12009KT 10SM CLR 39/12 A2983 RMK AO2 T03850124
KAXS 190055Z AUTO 13007KT 10SM CLR 40/10 A2983 RMK AO2 T04000100
KAXS 190035Z AUTO 13009KT 10SM CLR 41/10 A2983 RMK AO2 T04050098
KAXS 190015Z AUTO 15008KT 10SM CLR 41/10 A2983 RMK AO2 T04080098
KAXS 182355Z AUTO 13004KT 10SM CLR 41/09 A2984 RMK AO2 T04090094 10422 20365
KAXS 182335Z AUTO 12008KT 10SM CLR 42/10 A2985 RMK AO2 T04170096
KAXS 182315Z AUTO 16007KT 10SM CLR 41/10 A2985 RMK AO2 T04050095
KAXS 182255Z AUTO 17007KT 10SM SCT120 41/10 A2986 RMK AO2 T04070098
KAXS 182235Z AUTO 20008KT 10SM SCT120 42/10 A2986 RMK AO2 T04170096
KAXS 182215Z AUTO 17006KT 10SM CLR 41/09 A2986 RMK AO2 T04120092
KAXS 182155Z AUTO 21004KT 10SM CLR 41/09 A2987 RMK AO2 T04130089
KAXS 182135Z AUTO 24007KT 200V280 10SM CLR 42/09 A2987 RMK AO2 T04210094
KAXS 182115Z AUTO 24006KT 10SM CLR 42/10 A2988 RMK AO2 T04170099
KAXS 182055Z AUTO 23005KT 10SM CLR 41/09 A2989 RMK AO2 T04080089
KAXS 182035Z AUTO 22007KT 10SM CLR 42/10 A2990 RMK AO2 T04150095
KAXS 182015Z AUTO 00000KT 10SM CLR 41/12 A2991 RMK AO2 T04070119
KAXS 181955Z AUTO 00000KT 10SM CLR 40/12 A2992 RMK AO2 T04000119
KAXS 181935Z AUTO 00000KT 10SM CLR 40/12 A2993 RMK AO2 T03950119
KAXS 181915Z AUTO 25003KT 10SM CLR 39/13 A2994 RMK AO2 T03930126
KAXS 181855Z AUTO 25004KT 10SM CLR 39/13 A2994 RMK AO2 T03910131
KAXS 181835Z AUTO 26004KT 10SM CLR 38/13 A2995 RMK AO2 T03820134
KAXS 181815Z AUTO 26009KT 10SM CLR 38/14 A2995 RMK AO2 T03770137
KAXS 181755Z AUTO 00000KT 10SM CLR 37/13 A2996 RMK AO2 T03660129 10366 20265
KAXS 181735Z AUTO 20003KT 10SM CLR 36/13 A2997 RMK AO2 T03580128
KAXS 181715Z AUTO 17003KT 7SM CLR 35/13 A2997 RMK AO2 T03540126
KAXS 181655Z AUTO 15004KT 10SM CLR 35/13 A2998 RMK AO2 T03480126
KAXS 181635Z AUTO 17006KT 10SM CLR 34/15 A2998 RMK AO2 T03400146
KAXS 181615Z AUTO 15007KT 10SM CLR 33/15 A2998 RMK AO2 T03280151
KAXS 181555Z AUTO 17010KT 10SM CLR 32/17 A2998 RMK AO2 T03230167
KAXS 181535Z AUTO 15011KT 10SM CLR 32/19 A2998 RMK AO2 T03170191
KAXS 181515Z AUTO 15011KT 10SM CLR 31/20 A2999 RMK AO2 T03100200
KAXS 181455Z AUTO 14012KT 10SM CLR 31/20 A2999 RMK AO2 T03070200
KAXS 181435Z AUTO 15013KT 10SM CLR 31/21 A2999 RMK AO2 T03070207
KAXS 181415Z AUTO 13013KT 10SM CLR 30/21 A2999 RMK AO2 T03000210
KAXS 181355Z AUTO 12012KT 10SM CLR 29/21 A2999 RMK AO2 LTG DSNT E T02900212
KAXS 181335Z AUTO 12013KT 10SM CLR 29/21 A2999 RMK AO2 T02870210
KAXS 181315Z AUTO 11009KT 10SM CLR 28/21 A2999 RMK AO2 T02800211
KAXS 181255Z AUTO 10007KT 10SM CLR 28/21 A2999 RMK AO2 T02750211
KAXS 181235Z AUTO 07006KT 10SM CLR 27/21 A2999 RMK AO2 T02700211
KAXS 181215Z AUTO 08009KT 10SM CLR 27/21 A2999 RMK AO2 T02660210
KAXS 181155Z AUTO 08008KT 10SM CLR 27/21 A2998 RMK AO2 T02670211 10306 20266
KAXS 181135Z AUTO 09009KT 10SM CLR 27/21 A2998 RMK AO2 T02700212
KAXS 181115Z AUTO 07008KT 10SM CLR 27/22 A2999 RMK AO2 T02710215
KAXS 181055Z AUTO 08012KT 10SM CLR 27/22 A2998 RMK AO2 T02740216
KAXS 181035Z AUTO 07015G19KT 10SM CLR 28/22 A2999 RMK AO2 T02800215
KAXS 181015Z AUTO 07014G17KT 10SM SCT120 29/21 A2999 RMK AO2 T02890210
KAXS 180955Z AUTO 07007G16KT 10SM OVC120 31/15 A2999 RMK AO2 T03050146
KAXS 180935Z AUTO 03011KT 10SM BKN110 29/13 A2999 RMK AO2 T02860125
KAXS 180915Z AUTO 01004KT 10SM BKN120 27/14 A2997 RMK AO2 T02700137
KAXS 180855Z AUTO 02004KT 10SM SCT120 27/14 A2996 RMK AO2 T02710137
KAXS 180835Z AUTO 00000KT 10SM BKN120 28/14 A2995 RMK AO2 T02810138
KAXS 180815Z AUTO 23003KT 10SM SCT120 29/13 A2995 RMK AO2 T02850134
KAXS 180755Z AUTO 21004KT 10SM CLR 29/13 A2995 RMK AO2 T02880133
KAXS 180735Z AUTO 20007KT 10SM CLR 30/13 A2996 RMK AO2 T02960126
KAXS 180715Z AUTO 19007KT 10SM CLR 30/13 A2996 RMK AO2 T02950131
KAXS 180655Z AUTO 19006KT 10SM CLR 29/13 A2996 RMK AO2 T02920131
KAXS 180635Z AUTO 20006KT 10SM CLR 29/13 A2996 RMK AO2 T02920130
KAXS 180615Z AUTO 20005KT 10SM CLR 30/13 A2996 RMK AO2 T02950127
KAXS 180555Z AUTO 20007KT 10SM CLR 31/12 A2996 RMK AO2 T03070120 10400 20307 404100251
KAXS 180540Z AUTO 20008KT 10SM CLR 31/12 A2996 RMK AO2 T03130117
KAXS 180515Z AUTO 19008KT 10SM CLR 32/12 A2996 RMK AO2 T03220115
KAXS 180455Z AUTO 19009KT 10SM CLR 32/12 A2997 RMK AO2 T03210116
KAXS 180435Z AUTO 19008KT 10SM CLR 32/12 A2997 RMK AO2 T03240117
KAXS 180415Z AUTO 19008KT 10SM CLR 33/12 A2996 RMK AO2 T03300115
KAXS 180355Z AUTO 19008KT 10SM CLR 34/11 A2995 RMK AO2 T03400113
KAXS 180335Z AUTO 19009KT 10SM CLR 34/11 A2995 RMK AO2 LTG DSNT N T03430112
KAXS 180315Z AUTO 19008KT 10SM CLR 35/11 A2994 RMK AO2 T03470113
KAXS 180255Z AUTO 18009KT 10SM CLR 35/11 A2993 RMK AO2 T03540113
KAXS 180235Z AUTO 19010KT 10SM CLR 36/12 A2993 RMK AO2 T03570115
KAXS 180215Z AUTO 18010KT 10SM CLR 36/11 A2992 RMK AO2 T03640113
KAXS 180155Z AUTO 18010KT 10SM CLR 37/11 A2992 RMK AO2 T03700112
KAXS 180135Z AUTO 18010KT 10SM CLR 38/11 A2992 RMK AO2 T03760112
KAXS 180115Z AUTO 17009KT 10SM CLR 38/11 A2992 RMK AO2 T03820112
KAXS 180055Z AUTO 18009KT 10SM CLR 39/12 A2992 RMK AO2 T03870115
KAXS 180035Z AUTO 18010KT 10SM SCT120 39/11 A2992 RMK AO2 T03930113
KAXS 180015Z AUTO 17011KT 10SM SCT120 40/11 A2992 RMK AO2 T03980110
KAXS 180000Z AUTO 19010KT 10SM SCT120 40/11 A2992 RMK AO2 T03970113
KAXS 172335Z AUTO 18007KT 10SM CLR 40/12 A2992 RMK AO2 T03980123
KAXS 172315Z AUTO 19009KT 10SM CLR 39/12 A2994 RMK AO2 T03940115
KAXS 172255Z AUTO 18009KT 10SM CLR 40/12 A2994 RMK AO2 T03950115
KAXS 172235Z AUTO 19012G16KT 10SM CLR 41/12 A2994 RMK AO2 T04050118
KAXS 172215Z AUTO 16014KT 10SM SCT120 40/11 A2994 RMK AO2 T04030114
KAXS 172155Z AUTO 19007KT 10SM SCT110 40/12 A2995 RMK AO2 T03980117
KAXS 172135Z AUTO 17007KT 10SM SCT110 40/12 A2996 RMK AO2 T03980118
KAXS 172115Z AUTO 16011G16KT 10SM SCT110 41/12 A2996 RMK AO2 T04100119
KAXS 172055Z AUTO 21007KT 170V230 10SM CLR 41/12 A2996 RMK AO2 T04060116
KAXS 172035Z AUTO 20007G15KT 10SM CLR 41/11 A2997 RMK AO2 T04050109
KAXS 172015Z AUTO 22010KT 10SM CLR 41/12 A2998 RMK AO2 T04050119
KAXS 171955Z AUTO 25010G18KT 200V260 10SM CLR 40/13 A2998 RMK AO2 T04010126
KAXS 171935Z AUTO 22007G17KT 7SM CLR 40/13 A2999 RMK AO2 LTG DSNT W T03990126
KAXS 171915Z AUTO 25004G16KT 10SM CLR 40/13 A2999 RMK AO2 LTG DSNT W T03950130
KAXS 171855Z AUTO 27006KT 10SM CLR 39/13 A3001 RMK AO2 T03940133
KAXS 171835Z AUTO 28005KT 10SM CLR 39/13 A3002 RMK AO2 T03900134
KAXS 171815Z AUTO 22006KT 7SM CLR 39/14 A3003 RMK AO2 T03850137
KAXS 171755Z AUTO 24007KT 10SM CLR 38/14 A3003 RMK AO2 T03820142 10382 20253
KAXS 171735Z AUTO 26008KT 7SM CLR 38/14 A3004 RMK AO2 T03750140
KAXS 171715Z AUTO 26008KT 5SM HZ CLR 37/15 A3004 RMK AO2 T03730145
KAXS 171655Z AUTO 25012G15KT 7SM CLR 37/15 A3005 RMK AO2 T03660146
KAXS 171635Z AUTO 27011G19KT 7SM CLR 36/15 A3005 RMK AO2 T03610147
KAXS 171615Z AUTO 26009KT 7SM CLR 36/15 A3005 RMK AO2 T03570154
KAXS 171555Z AUTO 25012KT 7SM CLR 35/15 A3005 RMK AO2 T03500150